EXS24T EGPF-LEAM
Flight info
| Callsign | EXS24T |
|---|---|
| Flight time | 2h 54m |
| Altitude | 35000 |
| Route | LUSIV L612 ELBUS DCT HON UN859 CPT/N0416F230 Y321 PEPIS/N0457F340 Q41 SAM N63 LELNA/N0460F350 DCT KORER DCT NENEM P152 PPN N857 NOLSA N10 CJN M143 RISPO |
| Aircraft | B738/M-SDE2E3FGHIRWXY/LB1 |
Departure
| Time | 2026-05-05 09:54 |
|---|---|
| Airport | Glasgow Airport (EGPF) |
Arrival
| Time | 2026-05-05 12:48 |
|---|---|
| Airport | Almería Airport (LEAM) |
| Time | Latitude | Longitude | Altitude | Speed | Heading |
|---|---|---|---|---|---|
| 2026-05-05 08:59 | 55.86563 | -4.43870 | 28 ft | 0 kts | 64° |
| 2026-05-05 09:38 | 55.86561 | -4.43878 | 29 ft | 2 kts | 64° |
| 2026-05-05 09:39 | 55.86554 | -4.43902 | 29 ft | 2 kts | 64° |
| 2026-05-05 09:39 | 55.86548 | -4.43926 | 29 ft | 2 kts | 64° |
| 2026-05-05 09:39 | 55.86541 | -4.43949 | 29 ft | 2 kts | 64° |
| 2026-05-05 09:39 | 55.86534 | -4.43973 | 29 ft | 2 kts | 64° |
| 2026-05-05 09:40 | 55.86525 | -4.43992 | 29 ft | 2 kts | 19° |
| 2026-05-05 09:40 | 55.86509 | -4.43993 | 29 ft | 2 kts | 338° |
| 2026-05-05 09:40 | 55.86497 | -4.43979 | 29 ft | 2 kts | 330° |
| 2026-05-05 09:40 | 55.86483 | -4.43967 | 29 ft | 2 kts | 333° |
| 2026-05-05 09:41 | 55.86477 | -4.43961 | 29 ft | 0 kts | 331° |
| 2026-05-05 09:46 | 55.86478 | -4.43961 | 29 ft | 0 kts | 331° |
| 2026-05-05 09:47 | 55.86490 | -4.43974 | 29 ft | 4 kts | 332° |
| 2026-05-05 09:47 | 55.86529 | -4.44010 | 29 ft | 8 kts | 332° |
| 2026-05-05 09:47 | 55.86587 | -4.44015 | 29 ft | 8 kts | 36° |
| 2026-05-05 09:47 | 55.86631 | -4.43938 | 29 ft | 9 kts | 46° |
| 2026-05-05 09:48 | 55.86677 | -4.43853 | 29 ft | 9 kts | 47° |
| 2026-05-05 09:48 | 55.86723 | -4.43759 | 29 ft | 10 kts | 59° |
| 2026-05-05 09:48 | 55.86747 | -4.43629 | 29 ft | 11 kts | 74° |
| 2026-05-05 09:48 | 55.86769 | -4.43493 | 29 ft | 11 kts | 74° |
| 2026-05-05 09:49 | 55.86793 | -4.43347 | 29 ft | 12 kts | 74° |
| 2026-05-05 09:49 | 55.86818 | -4.43194 | 29 ft | 13 kts | 74° |
| 2026-05-05 09:49 | 55.86843 | -4.43037 | 29 ft | 12 kts | 74° |
| 2026-05-05 09:49 | 55.86898 | -4.42934 | 29 ft | 11 kts | 28° |
| 2026-05-05 09:50 | 55.86968 | -4.42870 | 29 ft | 12 kts | 25° |
| 2026-05-05 09:50 | 55.87057 | -4.42808 | 29 ft | 14 kts | 20° |
| 2026-05-05 09:50 | 55.87163 | -4.42738 | 29 ft | 17 kts | 22° |
| 2026-05-05 09:50 | 55.87271 | -4.42663 | 29 ft | 16 kts | 20° |
| 2026-05-05 09:51 | 55.87369 | -4.42597 | 29 ft | 14 kts | 28° |
| 2026-05-05 09:51 | 55.87441 | -4.42486 | 29 ft | 13 kts | 46° |
| 2026-05-05 09:51 | 55.87505 | -4.42368 | 28 ft | 13 kts | 46° |
| 2026-05-05 09:51 | 55.87568 | -4.42250 | 26 ft | 14 kts | 46° |
| 2026-05-05 09:52 | 55.87639 | -4.42116 | 22 ft | 15 kts | 47° |
| 2026-05-05 09:52 | 55.87716 | -4.41972 | 18 ft | 14 kts | 47° |
| 2026-05-05 09:52 | 55.87770 | -4.41888 | 16 ft | 9 kts | 32° |
| 2026-05-05 09:52 | 55.87838 | -4.41852 | 14 ft | 10 kts | 3° |
| 2026-05-05 09:53 | 55.87909 | -4.41893 | 11 ft | 9 kts | 319° |
| 2026-05-05 09:53 | 55.87931 | -4.41946 | 11 ft | 4 kts | 258° |
| 2026-05-05 09:53 | 55.87918 | -4.41973 | 11 ft | 1 kts | 227° |
| 2026-05-05 09:53 | 55.87862 | -4.42079 | 11 ft | 38 kts | 226° |
| 2026-05-05 09:54 | 55.87518 | -4.42720 | 29 ft | 102 kts | 227° |
| 2026-05-05 09:54 | 55.86904 | -4.43865 | 30 ft | 155 kts | 227° |
| 2026-05-05 09:54 | 55.86092 | -4.45351 | 375 ft | 171 kts | 229° |
| 2026-05-05 09:54 | 55.85286 | -4.46935 | 948 ft | 178 kts | 230° |
| 2026-05-05 09:55 | 55.84421 | -4.48544 | 1549 ft | 183 kts | 226° |
| 2026-05-05 09:55 | 55.83520 | -4.50075 | 2082 ft | 184 kts | 224° |
| 2026-05-05 09:55 | 55.82562 | -4.51694 | 2544 ft | 189 kts | 227° |
| 2026-05-05 09:55 | 55.81656 | -4.53431 | 2907 ft | 200 kts | 230° |
| 2026-05-05 09:56 | 55.80647 | -4.55275 | 3231 ft | 216 kts | 217° |
| 2026-05-05 09:56 | 55.79215 | -4.56203 | 3551 ft | 231 kts | 178° |
| 2026-05-05 09:56 | 55.77650 | -4.55395 | 3883 ft | 244 kts | 143° |
| 2026-05-05 09:56 | 55.76489 | -4.53175 | 4289 ft | 253 kts | 118° |
| 2026-05-05 09:57 | 55.75684 | -4.50363 | 4760 ft | 263 kts | 114° |
| 2026-05-05 09:57 | 55.74898 | -4.47397 | 5373 ft | 269 kts | 114° |
| 2026-05-05 09:57 | 55.74089 | -4.44401 | 5874 ft | 275 kts | 114° |
| 2026-05-05 09:57 | 55.73248 | -4.41350 | 5956 ft | 278 kts | 115° |
| 2026-05-05 09:58 | 55.72373 | -4.38208 | 6539 ft | 283 kts | 115° |
| 2026-05-05 09:58 | 55.71516 | -4.35141 | 7319 ft | 282 kts | 115° |
| 2026-05-05 09:58 | 55.70644 | -4.32014 | 7946 ft | 286 kts | 115° |
| 2026-05-05 09:58 | 55.69642 | -4.28953 | 8532 ft | 292 kts | 127° |
| 2026-05-05 09:59 | 55.68245 | -4.26377 | 9111 ft | 297 kts | 141° |
| 2026-05-05 09:59 | 55.66545 | -4.24312 | 9679 ft | 301 kts | 149° |
| 2026-05-05 09:59 | 55.64718 | -4.22434 | 10282 ft | 304 kts | 152° |
| 2026-05-05 09:59 | 55.62838 | -4.20594 | 10581 ft | 320 kts | 152° |
| 2026-05-05 10:00 | 55.60844 | -4.18670 | 10892 ft | 334 kts | 152° |
| 2026-05-05 10:00 | 55.58739 | -4.16636 | 11188 ft | 349 kts | 152° |
| 2026-05-05 10:00 | 55.56572 | -4.14535 | 11473 ft | 364 kts | 152° |
| 2026-05-05 10:00 | 55.54339 | -4.12363 | 11737 ft | 379 kts | 152° |
| 2026-05-05 10:01 | 55.52001 | -4.10087 | 12065 ft | 391 kts | 152° |
| 2026-05-05 10:01 | 55.49597 | -4.07747 | 12590 ft | 398 kts | 153° |
| 2026-05-05 10:01 | 55.47131 | -4.05470 | 13205 ft | 402 kts | 155° |
| 2026-05-05 10:01 | 55.44626 | -4.03337 | 13858 ft | 405 kts | 156° |
| 2026-05-05 10:02 | 55.42053 | -4.01236 | 14503 ft | 408 kts | 157° |
| 2026-05-05 10:02 | 55.39483 | -3.99162 | 15188 ft | 411 kts | 157° |
| 2026-05-05 10:02 | 55.36879 | -3.97056 | 15846 ft | 414 kts | 157° |
| 2026-05-05 10:02 | 55.34279 | -3.94941 | 16462 ft | 417 kts | 157° |
| 2026-05-05 10:03 | 55.31644 | -3.92785 | 17073 ft | 421 kts | 156° |
| 2026-05-05 10:03 | 55.29008 | -3.90619 | 17672 ft | 424 kts | 156° |
| 2026-05-05 10:03 | 55.26310 | -3.88397 | 18284 ft | 427 kts | 156° |
| 2026-05-05 10:03 | 55.23620 | -3.86181 | 18876 ft | 430 kts | 156° |
| 2026-05-05 10:04 | 55.20923 | -3.83961 | 19468 ft | 433 kts | 156° |
| 2026-05-05 10:04 | 55.18184 | -3.81709 | 20045 ft | 436 kts | 156° |
| 2026-05-05 10:04 | 55.15463 | -3.79475 | 20622 ft | 438 kts | 156° |
| 2026-05-05 10:04 | 55.12716 | -3.77223 | 21139 ft | 442 kts | 156° |
| 2026-05-05 10:05 | 55.09913 | -3.74928 | 21722 ft | 444 kts | 156° |
| 2026-05-05 10:05 | 55.07102 | -3.72632 | 22225 ft | 448 kts | 156° |
| 2026-05-05 10:05 | 55.04295 | -3.70342 | 22726 ft | 451 kts | 156° |
| 2026-05-05 10:05 | 55.01440 | -3.68017 | 23235 ft | 454 kts | 156° |
| 2026-05-05 10:06 | 54.98609 | -3.65715 | 23698 ft | 457 kts | 156° |
| 2026-05-05 10:06 | 54.95709 | -3.63361 | 24195 ft | 460 kts | 157° |
| 2026-05-05 10:06 | 54.92828 | -3.61026 | 24638 ft | 463 kts | 157° |
| 2026-05-05 10:06 | 54.89936 | -3.58686 | 25138 ft | 464 kts | 157° |
| 2026-05-05 10:07 | 54.86968 | -3.56287 | 25582 ft | 467 kts | 157° |
| 2026-05-05 10:07 | 54.84017 | -3.53906 | 26047 ft | 469 kts | 157° |
| 2026-05-05 10:07 | 54.81090 | -3.51549 | 26431 ft | 472 kts | 157° |
| 2026-05-05 10:07 | 54.79071 | -3.49926 | 26730 ft | 474 kts | 157° |
| 2026-05-05 10:08 | 54.75098 | -3.46736 | 27232 ft | 478 kts | 157° |
| 2026-05-05 10:08 | 54.72120 | -3.44346 | 27882 ft | 474 kts | 157° |
| 2026-05-05 10:08 | 54.69112 | -3.41937 | 28455 ft | 472 kts | 157° |
| 2026-05-05 10:08 | 54.66179 | -3.39592 | 28935 ft | 471 kts | 157° |
| 2026-05-05 10:09 | 54.63205 | -3.37219 | 29454 ft | 470 kts | 157° |
| 2026-05-05 10:09 | 54.60236 | -3.34854 | 29943 ft | 468 kts | 158° |
| 2026-05-05 10:09 | 54.57256 | -3.32485 | 30431 ft | 467 kts | 158° |
| 2026-05-05 10:09 | 54.54310 | -3.30147 | 30864 ft | 466 kts | 158° |
| 2026-05-05 10:10 | 54.51384 | -3.27828 | 31273 ft | 465 kts | 158° |
| 2026-05-05 10:10 | 54.48478 | -3.25529 | 31650 ft | 464 kts | 158° |
| 2026-05-05 10:10 | 54.45539 | -3.23207 | 32039 ft | 463 kts | 158° |
| 2026-05-05 10:10 | 54.42627 | -3.20912 | 32403 ft | 463 kts | 158° |
| 2026-05-05 10:11 | 54.39719 | -3.18622 | 32762 ft | 462 kts | 158° |
| 2026-05-05 10:11 | 54.36792 | -3.16323 | 33110 ft | 461 kts | 158° |
| 2026-05-05 10:11 | 54.33883 | -3.14040 | 33454 ft | 460 kts | 158° |
| 2026-05-05 10:11 | 54.30976 | -3.11762 | 33785 ft | 459 kts | 158° |
| 2026-05-05 10:12 | 54.28090 | -3.09503 | 34089 ft | 459 kts | 158° |
| 2026-05-05 10:12 | 54.25171 | -3.07221 | 34410 ft | 457 kts | 158° |
| 2026-05-05 10:12 | 54.22294 | -3.04977 | 34695 ft | 457 kts | 158° |
| 2026-05-05 10:12 | 54.19412 | -3.02732 | 34926 ft | 457 kts | 158° |
| 2026-05-05 10:13 | 54.13618 | -2.98232 | 35019 ft | 458 kts | 157° |
| 2026-05-05 10:13 | 54.07871 | -2.93780 | 35027 ft | 455 kts | 157° |
| 2026-05-05 10:14 | 54.02114 | -2.89333 | 35033 ft | 456 kts | 157° |
| 2026-05-05 10:14 | 53.96386 | -2.84923 | 35032 ft | 456 kts | 157° |
| 2026-05-05 10:15 | 53.90620 | -2.80498 | 35025 ft | 456 kts | 157° |
| 2026-05-05 10:15 | 53.84962 | -2.76169 | 35029 ft | 457 kts | 157° |
| 2026-05-05 10:16 | 53.79161 | -2.71743 | 35027 ft | 457 kts | 157° |
| 2026-05-05 10:16 | 53.73414 | -2.67372 | 35030 ft | 457 kts | 157° |
| 2026-05-05 10:17 | 53.67605 | -2.62967 | 35025 ft | 458 kts | 156° |
| 2026-05-05 10:17 | 53.61827 | -2.58599 | 35024 ft | 458 kts | 156° |
| 2026-05-05 10:18 | 53.55980 | -2.54194 | 35025 ft | 461 kts | 156° |
| 2026-05-05 10:18 | 53.50156 | -2.49819 | 35021 ft | 464 kts | 155° |
| 2026-05-05 10:19 | 53.44272 | -2.45411 | 35021 ft | 460 kts | 154° |
| 2026-05-05 10:19 | 53.38511 | -2.41110 | 35016 ft | 454 kts | 154° |
| 2026-05-05 10:20 | 53.32784 | -2.36843 | 35016 ft | 453 kts | 154° |
| 2026-05-05 10:20 | 53.27062 | -2.32593 | 35012 ft | 452 kts | 155° |
| 2026-05-05 10:21 | 53.21317 | -2.28340 | 35010 ft | 454 kts | 155° |
| 2026-05-05 10:21 | 53.15584 | -2.24108 | 35005 ft | 452 kts | 155° |
| 2026-05-05 10:22 | 53.09843 | -2.19882 | 35006 ft | 452 kts | 155° |
| 2026-05-05 10:22 | 53.04118 | -2.15682 | 35008 ft | 451 kts | 155° |
| 2026-05-05 10:23 | 52.98386 | -2.11488 | 35008 ft | 451 kts | 155° |
| 2026-05-05 10:23 | 52.92636 | -2.07293 | 35006 ft | 451 kts | 155° |
| 2026-05-05 10:24 | 52.86939 | -2.03149 | 35001 ft | 449 kts | 155° |
| 2026-05-05 10:24 | 52.81240 | -1.99017 | 35002 ft | 448 kts | 155° |
| 2026-05-05 10:25 | 52.75560 | -1.94910 | 35006 ft | 448 kts | 155° |
| 2026-05-05 10:25 | 52.69857 | -1.90798 | 35011 ft | 448 kts | 155° |
| 2026-05-05 10:26 | 52.64169 | -1.86706 | 35007 ft | 448 kts | 155° |
| 2026-05-05 10:26 | 52.58448 | -1.82604 | 35003 ft | 447 kts | 155° |
| 2026-05-05 10:27 | 52.52748 | -1.78530 | 35003 ft | 446 kts | 155° |
| 2026-05-05 10:27 | 52.47054 | -1.74470 | 35005 ft | 446 kts | 155° |
| 2026-05-05 10:28 | 52.41386 | -1.70441 | 35004 ft | 445 kts | 155° |
| 2026-05-05 10:28 | 52.35718 | -1.66408 | 35005 ft | 444 kts | 156° |
| 2026-05-05 10:29 | 52.29899 | -1.62951 | 34996 ft | 445 kts | 161° |
| 2026-05-05 10:29 | 52.23975 | -1.59973 | 34997 ft | 444 kts | 162° |
| 2026-05-05 10:30 | 52.18069 | -1.57049 | 34994 ft | 443 kts | 162° |
| 2026-05-05 10:30 | 52.12198 | -1.54093 | 34995 ft | 443 kts | 162° |
| 2026-05-05 10:31 | 52.06320 | -1.51095 | 34976 ft | 442 kts | 162° |
| 2026-05-05 10:31 | 52.00453 | -1.48087 | 34954 ft | 442 kts | 161° |
| 2026-05-05 10:32 | 51.94622 | -1.45093 | 34979 ft | 441 kts | 162° |
| 2026-05-05 10:32 | 51.88649 | -1.43019 | 34996 ft | 441 kts | 182° |
| 2026-05-05 10:33 | 51.83202 | -1.44519 | 34980 ft | 443 kts | 192° |
| 2026-05-05 10:33 | 51.77269 | -1.46920 | 34982 ft | 443 kts | 193° |
| 2026-05-05 10:34 | 51.71296 | -1.49350 | 34982 ft | 442 kts | 193° |
| 2026-05-05 10:34 | 51.65293 | -1.51692 | 34980 ft | 443 kts | 192° |
| 2026-05-05 10:35 | 51.59304 | -1.53947 | 34978 ft | 443 kts | 192° |
| 2026-05-05 10:35 | 51.53293 | -1.56163 | 34984 ft | 444 kts | 192° |
| 2026-05-05 10:36 | 51.47313 | -1.58343 | 34981 ft | 442 kts | 192° |
| 2026-05-05 10:36 | 51.41291 | -1.60526 | 34982 ft | 442 kts | 192° |
| 2026-05-05 10:37 | 51.35322 | -1.62681 | 34982 ft | 442 kts | 192° |
| 2026-05-05 10:37 | 51.29319 | -1.64843 | 34982 ft | 442 kts | 192° |
| 2026-05-05 10:38 | 51.23323 | -1.66996 | 34982 ft | 443 kts | 192° |
| 2026-05-05 10:38 | 51.17287 | -1.69158 | 34983 ft | 442 kts | 192° |
| 2026-05-05 10:39 | 51.11320 | -1.71288 | 34986 ft | 443 kts | 192° |
| 2026-05-05 10:39 | 51.05305 | -1.73432 | 34981 ft | 443 kts | 192° |
| 2026-05-05 10:40 | 50.99323 | -1.75557 | 34986 ft | 442 kts | 192° |
| 2026-05-05 10:40 | 50.93321 | -1.77684 | 34982 ft | 441 kts | 192° |
| 2026-05-05 10:41 | 50.87331 | -1.79801 | 34982 ft | 441 kts | 192° |
| 2026-05-05 10:41 | 50.81359 | -1.81906 | 34983 ft | 442 kts | 192° |
| 2026-05-05 10:42 | 50.72349 | -1.85070 | 34983 ft | 443 kts | 192° |
| 2026-05-05 10:43 | 50.66341 | -1.87174 | 34981 ft | 442 kts | 192° |
| 2026-05-05 10:43 | 50.60334 | -1.89272 | 34980 ft | 443 kts | 192° |
| 2026-05-05 10:44 | 50.54342 | -1.91360 | 34977 ft | 443 kts | 192° |
| 2026-05-05 10:44 | 50.48365 | -1.93437 | 34981 ft | 443 kts | 192° |
| 2026-05-05 10:45 | 50.42359 | -1.95518 | 34976 ft | 444 kts | 192° |
| 2026-05-05 10:45 | 50.36329 | -1.97602 | 34974 ft | 442 kts | 192° |
| 2026-05-05 10:46 | 50.30357 | -1.99660 | 34971 ft | 444 kts | 192° |
| 2026-05-05 10:46 | 50.24330 | -2.01731 | 34963 ft | 443 kts | 192° |
| 2026-05-05 10:47 | 50.18288 | -2.03803 | 34958 ft | 444 kts | 192° |
| 2026-05-05 10:47 | 50.12297 | -2.05853 | 34953 ft | 443 kts | 192° |
| 2026-05-05 10:48 | 50.06275 | -2.07908 | 34948 ft | 444 kts | 192° |
| 2026-05-05 10:48 | 50.00241 | -2.09962 | 34949 ft | 444 kts | 192° |
| 2026-05-05 10:49 | 49.94186 | -2.11677 | 34946 ft | 443 kts | 187° |
| 2026-05-05 10:49 | 49.88118 | -2.12746 | 34947 ft | 442 kts | 185° |
| 2026-05-05 10:50 | 49.82010 | -2.13706 | 34953 ft | 442 kts | 185° |
| 2026-05-05 10:50 | 49.75901 | -2.14707 | 34948 ft | 442 kts | 186° |
| 2026-05-05 10:51 | 49.69778 | -2.15755 | 34947 ft | 442 kts | 186° |
| 2026-05-05 10:51 | 49.63689 | -2.16819 | 34955 ft | 444 kts | 186° |
| 2026-05-05 10:52 | 49.57604 | -2.17892 | 34948 ft | 442 kts | 186° |
| 2026-05-05 10:52 | 49.51495 | -2.18969 | 34945 ft | 443 kts | 186° |
| 2026-05-05 10:53 | 49.45371 | -2.20048 | 34956 ft | 442 kts | 186° |
| 2026-05-05 10:53 | 49.39265 | -2.21120 | 34950 ft | 443 kts | 186° |
| 2026-05-05 10:54 | 49.33173 | -2.22188 | 34944 ft | 441 kts | 186° |
| 2026-05-05 10:54 | 49.27097 | -2.23251 | 34951 ft | 443 kts | 185° |
| 2026-05-05 10:55 | 49.20969 | -2.24320 | 34948 ft | 442 kts | 186° |
| 2026-05-05 10:55 | 49.14889 | -2.25377 | 34940 ft | 443 kts | 185° |
| 2026-05-05 10:56 | 49.08751 | -2.26442 | 34945 ft | 443 kts | 185° |
| 2026-05-05 10:56 | 49.02665 | -2.27495 | 34932 ft | 443 kts | 185° |
| 2026-05-05 10:57 | 48.96564 | -2.28548 | 34932 ft | 443 kts | 185° |
| 2026-05-05 10:57 | 48.90453 | -2.29602 | 34932 ft | 442 kts | 185° |
| 2026-05-05 10:58 | 48.84359 | -2.30649 | 34928 ft | 441 kts | 185° |
| 2026-05-05 10:58 | 48.78254 | -2.31696 | 34923 ft | 443 kts | 185° |
| 2026-05-05 10:59 | 48.72160 | -2.32738 | 34923 ft | 441 kts | 185° |
| 2026-05-05 10:59 | 48.66066 | -2.33777 | 34923 ft | 442 kts | 185° |
| 2026-05-05 11:00 | 48.59970 | -2.34814 | 34922 ft | 441 kts | 185° |
| 2026-05-05 11:00 | 48.53833 | -2.35855 | 34930 ft | 444 kts | 184° |
| 2026-05-05 11:01 | 48.47734 | -2.36888 | 34928 ft | 442 kts | 185° |
| 2026-05-05 11:01 | 48.41648 | -2.37915 | 34924 ft | 441 kts | 185° |
| 2026-05-05 11:02 | 48.35560 | -2.38941 | 34919 ft | 441 kts | 185° |
| 2026-05-05 11:02 | 48.29477 | -2.39963 | 34912 ft | 441 kts | 184° |
| 2026-05-05 11:03 | 48.23378 | -2.40986 | 34907 ft | 441 kts | 184° |
| 2026-05-05 11:03 | 48.17313 | -2.42002 | 34906 ft | 439 kts | 184° |
| 2026-05-05 11:04 | 48.11232 | -2.43018 | 34912 ft | 440 kts | 184° |
| 2026-05-05 11:04 | 48.05166 | -2.44026 | 34911 ft | 441 kts | 184° |
| 2026-05-05 11:05 | 47.99049 | -2.45041 | 34910 ft | 441 kts | 184° |
| 2026-05-05 11:05 | 47.92947 | -2.46052 | 34873 ft | 440 kts | 184° |
| 2026-05-05 11:06 | 47.86859 | -2.47057 | 34906 ft | 443 kts | 184° |
| 2026-05-05 11:06 | 47.80769 | -2.48061 | 34858 ft | 441 kts | 184° |
| 2026-05-05 11:07 | 47.74651 | -2.49068 | 34902 ft | 444 kts | 184° |
| 2026-05-05 11:07 | 47.68530 | -2.50073 | 34894 ft | 443 kts | 184° |
| 2026-05-05 11:08 | 47.62380 | -2.51171 | 34883 ft | 445 kts | 185° |
| 2026-05-05 11:08 | 47.56290 | -2.52348 | 34890 ft | 446 kts | 186° |
| 2026-05-05 11:09 | 47.50154 | -2.53539 | 34922 ft | 447 kts | 186° |
| 2026-05-05 11:09 | 47.44022 | -2.54717 | 34925 ft | 446 kts | 186° |
| 2026-05-05 11:10 | 47.37843 | -2.55893 | 34899 ft | 446 kts | 186° |
| 2026-05-05 11:10 | 47.31685 | -2.57058 | 34913 ft | 449 kts | 186° |
| 2026-05-05 11:11 | 47.25494 | -2.58223 | 34908 ft | 448 kts | 186° |
| 2026-05-05 11:11 | 47.19340 | -2.59380 | 34888 ft | 448 kts | 186° |
| 2026-05-05 11:12 | 47.13170 | -2.60535 | 34894 ft | 448 kts | 186° |
| 2026-05-05 11:12 | 47.06974 | -2.61693 | 34907 ft | 450 kts | 186° |
| 2026-05-05 11:13 | 47.00802 | -2.62844 | 34894 ft | 449 kts | 186° |
| 2026-05-05 11:13 | 46.94576 | -2.64003 | 34900 ft | 451 kts | 186° |
| 2026-05-05 11:14 | 46.88404 | -2.65148 | 34912 ft | 450 kts | 185° |
| 2026-05-05 11:14 | 46.82185 | -2.66299 | 34910 ft | 451 kts | 185° |
| 2026-05-05 11:15 | 46.75978 | -2.67445 | 34920 ft | 451 kts | 185° |
| 2026-05-05 11:15 | 46.69753 | -2.68593 | 34924 ft | 450 kts | 185° |
| 2026-05-05 11:16 | 46.63560 | -2.69731 | 34916 ft | 450 kts | 186° |
| 2026-05-05 11:16 | 46.57361 | -2.70867 | 34926 ft | 451 kts | 186° |
| 2026-05-05 11:17 | 46.51142 | -2.72005 | 34922 ft | 451 kts | 186° |
| 2026-05-05 11:17 | 46.44897 | -2.73145 | 34925 ft | 451 kts | 186° |
| 2026-05-05 11:18 | 46.38663 | -2.74281 | 34930 ft | 451 kts | 186° |
| 2026-05-05 11:18 | 46.32445 | -2.75411 | 34912 ft | 452 kts | 186° |
| 2026-05-05 11:19 | 46.26246 | -2.76534 | 34919 ft | 452 kts | 186° |
| 2026-05-05 11:19 | 46.20000 | -2.77663 | 34916 ft | 453 kts | 186° |
| 2026-05-05 11:20 | 46.13755 | -2.78789 | 34921 ft | 453 kts | 186° |
| 2026-05-05 11:20 | 46.07526 | -2.79913 | 34924 ft | 452 kts | 186° |
| 2026-05-05 11:21 | 46.01282 | -2.81034 | 34916 ft | 453 kts | 186° |
| 2026-05-05 11:21 | 45.95038 | -2.82152 | 34923 ft | 453 kts | 186° |
| 2026-05-05 11:22 | 45.88804 | -2.83268 | 34925 ft | 452 kts | 186° |
| 2026-05-05 11:22 | 45.82542 | -2.84384 | 34930 ft | 453 kts | 186° |
| 2026-05-05 11:23 | 45.76339 | -2.85488 | 34927 ft | 452 kts | 186° |
| 2026-05-05 11:23 | 45.70092 | -2.86597 | 34939 ft | 453 kts | 187° |
| 2026-05-05 11:24 | 45.63852 | -2.87703 | 34937 ft | 451 kts | 187° |
| 2026-05-05 11:24 | 45.57626 | -2.88803 | 34937 ft | 451 kts | 187° |
| 2026-05-05 11:25 | 45.51442 | -2.89893 | 34947 ft | 452 kts | 187° |
| 2026-05-05 11:25 | 45.45191 | -2.90993 | 34944 ft | 452 kts | 187° |
| 2026-05-05 11:26 | 45.38966 | -2.92086 | 34945 ft | 452 kts | 187° |
| 2026-05-05 11:26 | 45.32747 | -2.93176 | 34945 ft | 453 kts | 187° |
| 2026-05-05 11:27 | 45.26497 | -2.94270 | 34951 ft | 453 kts | 187° |
| 2026-05-05 11:27 | 45.20251 | -2.95360 | 34952 ft | 452 kts | 187° |
| 2026-05-05 11:28 | 45.14029 | -2.96443 | 34966 ft | 452 kts | 187° |
| 2026-05-05 11:28 | 45.07813 | -2.97523 | 34955 ft | 452 kts | 187° |
| 2026-05-05 11:29 | 45.01574 | -2.98605 | 34959 ft | 453 kts | 187° |
| 2026-05-05 11:29 | 44.95284 | -2.99693 | 34964 ft | 454 kts | 187° |
| 2026-05-05 11:30 | 44.89038 | -3.00771 | 34962 ft | 454 kts | 187° |
| 2026-05-05 11:30 | 44.82730 | -3.01857 | 34964 ft | 455 kts | 187° |
| 2026-05-05 11:31 | 44.77556 | -3.02745 | 34965 ft | 453 kts | 188° |
| 2026-05-05 11:31 | 44.70272 | -3.03993 | 34975 ft | 453 kts | 188° |
| 2026-05-05 11:32 | 44.64004 | -3.05065 | 34973 ft | 452 kts | 188° |
| 2026-05-05 11:32 | 44.57811 | -3.06122 | 34969 ft | 452 kts | 188° |
| 2026-05-05 11:33 | 44.51544 | -3.07190 | 34972 ft | 453 kts | 188° |
| 2026-05-05 11:33 | 44.45301 | -3.08251 | 34973 ft | 455 kts | 188° |
| 2026-05-05 11:34 | 44.39025 | -3.09314 | 34979 ft | 453 kts | 188° |
| 2026-05-05 11:34 | 44.32793 | -3.10369 | 34979 ft | 454 kts | 188° |
| 2026-05-05 11:35 | 44.26526 | -3.11427 | 34972 ft | 453 kts | 188° |
| 2026-05-05 11:35 | 44.20295 | -3.12477 | 34964 ft | 452 kts | 188° |
| 2026-05-05 11:36 | 44.14058 | -3.13515 | 34970 ft | 453 kts | 187° |
| 2026-05-05 11:36 | 44.07758 | -3.13473 | 34967 ft | 457 kts | 172° |
| 2026-05-05 11:36 | 44.04705 | -3.12334 | 34966 ft | 461 kts | 161° |
| 2026-05-05 11:37 | 44.01789 | -3.10486 | 34969 ft | 464 kts | 153° |
| 2026-05-05 11:37 | 43.96390 | -3.05485 | 34966 ft | 466 kts | 144° |
| 2026-05-05 11:38 | 43.91351 | -2.99885 | 34966 ft | 466 kts | 142° |
| 2026-05-05 11:38 | 43.86373 | -2.94148 | 34966 ft | 465 kts | 142° |
| 2026-05-05 11:39 | 43.81395 | -2.88454 | 34967 ft | 465 kts | 142° |
| 2026-05-05 11:39 | 43.76405 | -2.82819 | 34968 ft | 465 kts | 143° |
| 2026-05-05 11:40 | 43.71379 | -2.77191 | 34967 ft | 466 kts | 143° |
| 2026-05-05 11:40 | 43.66354 | -2.71585 | 34969 ft | 466 kts | 143° |
| 2026-05-05 11:41 | 43.61302 | -2.65967 | 34965 ft | 466 kts | 143° |
| 2026-05-05 11:41 | 43.56254 | -2.60372 | 34969 ft | 466 kts | 144° |
| 2026-05-05 11:42 | 43.51218 | -2.54803 | 34968 ft | 465 kts | 144° |
| 2026-05-05 11:42 | 43.46210 | -2.49277 | 34972 ft | 465 kts | 144° |
| 2026-05-05 11:43 | 43.41143 | -2.43700 | 34971 ft | 466 kts | 144° |
| 2026-05-05 11:43 | 43.36115 | -2.38177 | 34971 ft | 466 kts | 144° |
| 2026-05-05 11:44 | 43.31040 | -2.32613 | 34969 ft | 465 kts | 145° |
| 2026-05-05 11:44 | 43.26006 | -2.27106 | 34972 ft | 466 kts | 145° |
| 2026-05-05 11:45 | 43.20947 | -2.21584 | 34971 ft | 465 kts | 145° |
| 2026-05-05 11:45 | 43.15912 | -2.16102 | 34975 ft | 464 kts | 146° |
| 2026-05-05 11:46 | 43.10844 | -2.10595 | 34978 ft | 465 kts | 146° |
| 2026-05-05 11:46 | 43.05794 | -2.05122 | 34986 ft | 465 kts | 146° |
| 2026-05-05 11:47 | 43.00732 | -1.99648 | 34980 ft | 465 kts | 146° |
| 2026-05-05 11:47 | 42.95671 | -1.94189 | 34977 ft | 466 kts | 146° |
| 2026-05-05 11:48 | 42.88037 | -1.85972 | 34982 ft | 466 kts | 146° |
| 2026-05-05 11:48 | 42.82982 | -1.80593 | 34977 ft | 463 kts | 148° |
| 2026-05-05 11:49 | 42.77430 | -1.76427 | 34968 ft | 452 kts | 167° |
| 2026-05-05 11:49 | 42.71298 | -1.75214 | 34968 ft | 439 kts | 184° |
| 2026-05-05 11:50 | 42.65326 | -1.76073 | 34963 ft | 431 kts | 199° |
| 2026-05-05 11:50 | 42.59763 | -1.79053 | 34970 ft | 427 kts | 208° |
| 2026-05-05 11:51 | 42.54465 | -1.82630 | 34958 ft | 426 kts | 210° |
| 2026-05-05 11:51 | 42.49196 | -1.86278 | 34954 ft | 426 kts | 210° |
| 2026-05-05 11:52 | 42.43939 | -1.89872 | 34952 ft | 426 kts | 210° |
| 2026-05-05 11:52 | 42.38641 | -1.93442 | 34949 ft | 425 kts | 210° |
| 2026-05-05 11:53 | 42.34233 | -1.96391 | 34949 ft | 426 kts | 210° |
| 2026-05-05 11:53 | 42.28056 | -2.00507 | 34945 ft | 424 kts | 210° |
| 2026-05-05 11:54 | 42.22738 | -2.04037 | 34945 ft | 425 kts | 210° |
| 2026-05-05 11:54 | 42.17442 | -2.07535 | 34942 ft | 425 kts | 210° |
| 2026-05-05 11:55 | 42.12123 | -2.11043 | 34947 ft | 425 kts | 210° |
| 2026-05-05 11:55 | 42.06844 | -2.14523 | 34942 ft | 424 kts | 210° |
| 2026-05-05 11:56 | 42.01560 | -2.18001 | 34940 ft | 424 kts | 210° |
| 2026-05-05 11:56 | 41.96229 | -2.21505 | 34954 ft | 425 kts | 210° |
| 2026-05-05 11:57 | 41.90954 | -2.24964 | 34948 ft | 424 kts | 210° |
| 2026-05-05 11:57 | 41.85681 | -2.28415 | 34952 ft | 424 kts | 210° |
| 2026-05-05 11:58 | 41.80379 | -2.31875 | 34950 ft | 422 kts | 210° |
| 2026-05-05 11:58 | 41.75113 | -2.35303 | 34957 ft | 422 kts | 210° |
| 2026-05-05 11:59 | 41.69845 | -2.38732 | 34955 ft | 421 kts | 210° |
| 2026-05-05 11:59 | 41.64563 | -2.42166 | 34964 ft | 423 kts | 210° |
| 2026-05-05 12:00 | 41.59300 | -2.45578 | 34967 ft | 420 kts | 211° |
| 2026-05-05 12:00 | 41.54030 | -2.48991 | 34973 ft | 421 kts | 211° |
| 2026-05-05 12:01 | 41.48815 | -2.52359 | 34963 ft | 418 kts | 211° |
| 2026-05-05 12:01 | 41.43566 | -2.55743 | 34964 ft | 419 kts | 211° |
| 2026-05-05 12:02 | 41.38331 | -2.59115 | 34958 ft | 420 kts | 210° |
| 2026-05-05 12:02 | 41.32884 | -2.61996 | 34961 ft | 423 kts | 200° |
| 2026-05-05 12:03 | 41.26973 | -2.62665 | 34972 ft | 438 kts | 186° |
| 2026-05-05 12:03 | 41.20890 | -2.62211 | 34978 ft | 438 kts | 183° |
| 2026-05-05 12:04 | 41.14813 | -2.61560 | 34966 ft | 438 kts | 183° |
| 2026-05-05 12:04 | 41.08711 | -2.60932 | 34972 ft | 438 kts | 183° |
| 2026-05-05 12:05 | 41.02682 | -2.60351 | 34828 ft | 435 kts | 184° |
| 2026-05-05 12:05 | 40.99666 | -2.60073 | 34960 ft | 435 kts | 184° |
| 2026-05-05 12:05 | 40.96631 | -2.59801 | 34972 ft | 439 kts | 184° |
| 2026-05-05 12:06 | 40.90538 | -2.59251 | 34975 ft | 437 kts | 184° |
| 2026-05-05 12:06 | 40.84470 | -2.58697 | 34991 ft | 438 kts | 184° |
| 2026-05-05 12:07 | 40.78437 | -2.58154 | 34961 ft | 435 kts | 184° |
| 2026-05-05 12:07 | 40.72389 | -2.57611 | 34977 ft | 436 kts | 184° |
| 2026-05-05 12:08 | 40.66318 | -2.57066 | 34979 ft | 437 kts | 184° |
| 2026-05-05 12:08 | 40.60303 | -2.56524 | 34978 ft | 435 kts | 184° |
| 2026-05-05 12:09 | 40.54253 | -2.55984 | 34972 ft | 435 kts | 185° |
| 2026-05-05 12:09 | 40.48210 | -2.55443 | 34983 ft | 434 kts | 185° |
| 2026-05-05 12:10 | 40.42169 | -2.54906 | 34990 ft | 436 kts | 185° |
| 2026-05-05 12:10 | 40.36157 | -2.54368 | 34987 ft | 433 kts | 185° |
| 2026-05-05 12:11 | 40.30195 | -2.53795 | 34982 ft | 433 kts | 185° |
| 2026-05-05 12:11 | 40.24146 | -2.53197 | 34994 ft | 433 kts | 185° |
| 2026-05-05 12:12 | 40.18195 | -2.52603 | 34976 ft | 430 kts | 185° |
| 2026-05-05 12:12 | 40.12186 | -2.52016 | 34980 ft | 433 kts | 185° |
| 2026-05-05 12:13 | 40.06208 | -2.51431 | 34967 ft | 432 kts | 185° |
| 2026-05-05 12:13 | 40.00239 | -2.50848 | 34956 ft | 429 kts | 185° |
| 2026-05-05 12:14 | 39.94318 | -2.50273 | 34970 ft | 429 kts | 185° |
| 2026-05-05 12:14 | 39.88359 | -2.49694 | 34959 ft | 430 kts | 185° |
| 2026-05-05 12:15 | 39.82366 | -2.49115 | 34974 ft | 429 kts | 186° |
| 2026-05-05 12:15 | 39.76415 | -2.48546 | 34971 ft | 428 kts | 185° |
| 2026-05-05 12:16 | 39.70510 | -2.47981 | 34967 ft | 429 kts | 186° |
| 2026-05-05 12:16 | 39.64576 | -2.47413 | 34971 ft | 427 kts | 186° |
| 2026-05-05 12:17 | 39.58605 | -2.46843 | 34970 ft | 430 kts | 186° |
| 2026-05-05 12:17 | 39.52647 | -2.46275 | 34972 ft | 429 kts | 185° |
| 2026-05-05 12:18 | 39.46718 | -2.45708 | 34978 ft | 429 kts | 186° |
| 2026-05-05 12:18 | 39.40763 | -2.45142 | 34970 ft | 431 kts | 186° |
| 2026-05-05 12:19 | 39.34788 | -2.44572 | 34978 ft | 428 kts | 186° |
| 2026-05-05 12:19 | 39.28870 | -2.44009 | 34981 ft | 427 kts | 186° |
| 2026-05-05 12:20 | 39.22932 | -2.43449 | 34976 ft | 428 kts | 186° |
| 2026-05-05 12:20 | 39.16956 | -2.42888 | 34982 ft | 428 kts | 186° |
| 2026-05-05 12:21 | 39.11011 | -2.42327 | 34976 ft | 430 kts | 186° |
| 2026-05-05 12:21 | 39.05065 | -2.41766 | 34982 ft | 431 kts | 186° |
| 2026-05-05 12:22 | 38.99118 | -2.41208 | 34976 ft | 430 kts | 186° |
| 2026-05-05 12:22 | 38.93145 | -2.40641 | 34982 ft | 428 kts | 185° |
| 2026-05-05 12:23 | 38.87192 | -2.40079 | 34978 ft | 429 kts | 185° |
| 2026-05-05 12:23 | 38.81231 | -2.39517 | 34982 ft | 430 kts | 185° |
| 2026-05-05 12:24 | 38.75280 | -2.38957 | 34989 ft | 432 kts | 185° |
| 2026-05-05 12:24 | 38.69332 | -2.38393 | 34994 ft | 429 kts | 185° |
| 2026-05-05 12:25 | 38.63316 | -2.37831 | 34993 ft | 432 kts | 185° |
| 2026-05-05 12:25 | 38.57348 | -2.37270 | 34995 ft | 431 kts | 185° |
| 2026-05-05 12:26 | 38.51358 | -2.36711 | 35000 ft | 432 kts | 185° |
| 2026-05-05 12:26 | 38.45379 | -2.36151 | 34997 ft | 431 kts | 185° |
| 2026-05-05 12:27 | 38.40405 | -2.35683 | 34733 ft | 427 kts | 185° |
| 2026-05-05 12:27 | 38.36456 | -2.35308 | 34061 ft | 423 kts | 184° |
| 2026-05-05 12:27 | 38.33527 | -2.35056 | 33336 ft | 423 kts | 185° |
| 2026-05-05 12:28 | 38.30633 | -2.34858 | 32601 ft | 423 kts | 186° |
| 2026-05-05 12:28 | 38.27667 | -2.34681 | 31809 ft | 423 kts | 186° |
| 2026-05-05 12:28 | 38.24762 | -2.34517 | 31018 ft | 424 kts | 186° |
| 2026-05-05 12:28 | 38.21812 | -2.34350 | 30203 ft | 425 kts | 186° |
| 2026-05-05 12:29 | 38.18840 | -2.34180 | 29363 ft | 427 kts | 185° |
| 2026-05-05 12:29 | 38.15860 | -2.34007 | 28484 ft | 430 kts | 185° |
| 2026-05-05 12:29 | 38.12880 | -2.33832 | 27578 ft | 433 kts | 185° |
| 2026-05-05 12:29 | 38.09880 | -2.33653 | 26766 ft | 433 kts | 185° |
| 2026-05-05 12:30 | 38.06894 | -2.33467 | 26272 ft | 430 kts | 185° |
| 2026-05-05 12:30 | 38.03889 | -2.33283 | 25700 ft | 437 kts | 185° |
| 2026-05-05 12:30 | 38.00830 | -2.33096 | 25085 ft | 436 kts | 184° |
| 2026-05-05 12:30 | 37.97837 | -2.32908 | 24478 ft | 431 kts | 184° |
| 2026-05-05 12:31 | 37.94846 | -2.32717 | 23864 ft | 426 kts | 184° |
| 2026-05-05 12:31 | 37.91906 | -2.32529 | 23272 ft | 422 kts | 184° |
| 2026-05-05 12:31 | 37.88987 | -2.32344 | 22684 ft | 417 kts | 184° |
| 2026-05-05 12:31 | 37.86115 | -2.32163 | 22097 ft | 413 kts | 184° |
| 2026-05-05 12:32 | 37.83256 | -2.31985 | 21511 ft | 409 kts | 184° |
| 2026-05-05 12:32 | 37.80431 | -2.31810 | 20928 ft | 405 kts | 184° |
| 2026-05-05 12:32 | 37.77650 | -2.31639 | 20352 ft | 401 kts | 184° |
| 2026-05-05 12:32 | 37.74849 | -2.31469 | 19764 ft | 403 kts | 184° |
| 2026-05-05 12:33 | 37.72059 | -2.31303 | 19172 ft | 402 kts | 183° |
| 2026-05-05 12:33 | 37.69279 | -2.31134 | 18587 ft | 397 kts | 183° |
| 2026-05-05 12:33 | 37.66552 | -2.30965 | 18003 ft | 394 kts | 183° |
| 2026-05-05 12:33 | 37.63820 | -2.30796 | 17423 ft | 390 kts | 183° |
| 2026-05-05 12:34 | 37.61153 | -2.30633 | 16839 ft | 387 kts | 183° |
| 2026-05-05 12:34 | 37.58468 | -2.30483 | 16249 ft | 383 kts | 183° |
| 2026-05-05 12:34 | 37.55836 | -2.30346 | 15672 ft | 380 kts | 183° |
| 2026-05-05 12:34 | 37.53193 | -2.30211 | 15088 ft | 377 kts | 183° |
| 2026-05-05 12:35 | 37.50592 | -2.30078 | 14516 ft | 374 kts | 182° |
| 2026-05-05 12:35 | 37.48004 | -2.29945 | 13947 ft | 370 kts | 182° |
| 2026-05-05 12:35 | 37.45442 | -2.29812 | 13384 ft | 367 kts | 182° |
| 2026-05-05 12:35 | 37.42910 | -2.29680 | 12821 ft | 364 kts | 182° |
| 2026-05-05 12:36 | 37.40399 | -2.29549 | 12251 ft | 362 kts | 182° |
| 2026-05-05 12:36 | 37.37883 | -2.29418 | 11687 ft | 362 kts | 181° |
| 2026-05-05 12:36 | 37.35371 | -2.29289 | 11150 ft | 364 kts | 181° |
| 2026-05-05 12:36 | 37.32839 | -2.29154 | 10809 ft | 355 kts | 180° |
| 2026-05-05 12:37 | 37.30454 | -2.28789 | 10651 ft | 343 kts | 171° |
| 2026-05-05 12:37 | 37.28269 | -2.27728 | 10524 ft | 334 kts | 153° |
| 2026-05-05 12:37 | 37.26367 | -2.26097 | 10391 ft | 323 kts | 146° |
| 2026-05-05 12:37 | 37.24638 | -2.24404 | 10252 ft | 312 kts | 144° |
| 2026-05-05 12:38 | 37.22961 | -2.22738 | 10116 ft | 300 kts | 145° |
| 2026-05-05 12:38 | 37.21316 | -2.21150 | 9830 ft | 295 kts | 146° |
| 2026-05-05 12:38 | 37.19684 | -2.19627 | 9425 ft | 295 kts | 147° |
| 2026-05-05 12:38 | 37.18018 | -2.18105 | 9059 ft | 293 kts | 147° |
| 2026-05-05 12:39 | 37.16370 | -2.16611 | 8693 ft | 292 kts | 147° |
| 2026-05-05 12:39 | 37.14731 | -2.15126 | 8299 ft | 289 kts | 146° |
| 2026-05-05 12:39 | 37.13141 | -2.13682 | 7975 ft | 278 kts | 146° |
| 2026-05-05 12:39 | 37.11597 | -2.12279 | 7635 ft | 274 kts | 146° |
| 2026-05-05 12:40 | 37.10019 | -2.10962 | 7281 ft | 272 kts | 153° |
| 2026-05-05 12:40 | 37.08263 | -2.10232 | 6978 ft | 267 kts | 179° |
| 2026-05-05 12:40 | 37.07037 | -2.10359 | 6958 ft | 262 kts | 196° |
| 2026-05-05 12:40 | 37.04803 | -2.11637 | 6956 ft | 265 kts | 211° |
| 2026-05-05 12:41 | 37.03206 | -2.12769 | 6957 ft | 264 kts | 210° |
| 2026-05-05 12:41 | 37.01514 | -2.13697 | 6905 ft | 268 kts | 195° |
| 2026-05-05 12:41 | 36.99646 | -2.13694 | 6475 ft | 275 kts | 162° |
| 2026-05-05 12:41 | 36.98087 | -2.12432 | 6170 ft | 273 kts | 130° |
| 2026-05-05 12:42 | 36.97176 | -2.10351 | 5859 ft | 269 kts | 112° |
| 2026-05-05 12:42 | 36.96390 | -2.08262 | 5560 ft | 266 kts | 121° |
| 2026-05-05 12:42 | 36.95711 | -2.06993 | 5410 ft | 261 kts | 129° |
| 2026-05-05 12:42 | 36.94032 | -2.04904 | 5123 ft | 253 kts | 143° |
| 2026-05-05 12:43 | 36.92538 | -2.03873 | 5021 ft | 239 kts | 170° |
| 2026-05-05 12:43 | 36.90976 | -2.04039 | 4997 ft | 225 kts | 209° |
| 2026-05-05 12:43 | 36.89880 | -2.05393 | 4934 ft | 226 kts | 247° |
| 2026-05-05 12:43 | 36.89682 | -2.07317 | 4578 ft | 230 kts | 280° |
| 2026-05-05 12:44 | 36.90070 | -2.09266 | 4276 ft | 230 kts | 284° |
| 2026-05-05 12:44 | 36.90396 | -2.11183 | 4003 ft | 228 kts | 273° |
| 2026-05-05 12:44 | 36.90362 | -2.12494 | 3821 ft | 226 kts | 259° |
| 2026-05-05 12:44 | 36.89811 | -2.15015 | 3425 ft | 224 kts | 251° |
| 2026-05-05 12:45 | 36.89326 | -2.16833 | 3108 ft | 221 kts | 251° |
| 2026-05-05 12:45 | 36.88874 | -2.18673 | 2801 ft | 218 kts | 252° |
| 2026-05-05 12:45 | 36.88452 | -2.20448 | 2512 ft | 213 kts | 252° |
| 2026-05-05 12:45 | 36.88029 | -2.22187 | 2233 ft | 208 kts | 251° |
| 2026-05-05 12:46 | 36.87608 | -2.23896 | 1956 ft | 203 kts | 251° |
| 2026-05-05 12:46 | 36.87199 | -2.25572 | 1687 ft | 198 kts | 251° |
| 2026-05-05 12:46 | 36.86814 | -2.27156 | 1453 ft | 184 kts | 251° |
| 2026-05-05 12:46 | 36.86571 | -2.28150 | 1278 ft | 171 kts | 250° |
| 2026-05-05 12:47 | 36.86133 | -2.29927 | 957 ft | 153 kts | 250° |
| 2026-05-05 12:47 | 36.85833 | -2.31177 | 736 ft | 150 kts | 251° |
| 2026-05-05 12:47 | 36.85520 | -2.32394 | 557 ft | 147 kts | 250° |
| 2026-05-05 12:47 | 36.85226 | -2.33608 | 369 ft | 144 kts | 252° |
| 2026-05-05 12:48 | 36.85043 | -2.34413 | 260 ft | 146 kts | 250° |
| 2026-05-05 12:48 | 36.84627 | -2.36046 | 74 ft | 144 kts | 252° |
| 2026-05-05 12:48 | 36.84463 | -2.36720 | 66 ft | 99 kts | 252° |
| 2026-05-05 12:48 | 36.84303 | -2.37380 | 63 ft | 32 kts | 253° |
| 2026-05-05 12:49 | 36.84238 | -2.37645 | 59 ft | 21 kts | 253° |
| 2026-05-05 12:49 | 36.84207 | -2.37770 | 57 ft | 13 kts | 252° |
| 2026-05-05 12:49 | 36.84194 | -2.37891 | 56 ft | 14 kts | 270° |
| 2026-05-05 12:49 | 36.84203 | -2.38017 | 54 ft | 14 kts | 276° |
| 2026-05-05 12:50 | 36.84214 | -2.38113 | 53 ft | 6 kts | 279° |
| 2026-05-05 12:50 | 36.84222 | -2.38170 | 53 ft | 7 kts | 289° |
| 2026-05-05 12:50 | 36.84249 | -2.38197 | 53 ft | 7 kts | 353° |
| 2026-05-05 12:50 | 36.84292 | -2.38126 | 54 ft | 11 kts | 72° |
| 2026-05-05 12:51 | 36.84316 | -2.38030 | 56 ft | 11 kts | 73° |
| 2026-05-05 12:51 | 36.84340 | -2.37936 | 58 ft | 11 kts | 73° |
| 2026-05-05 12:51 | 36.84363 | -2.37840 | 59 ft | 12 kts | 73° |
| 2026-05-05 12:51 | 36.84388 | -2.37739 | 60 ft | 12 kts | 72° |
| 2026-05-05 12:52 | 36.84413 | -2.37635 | 62 ft | 12 kts | 73° |
| 2026-05-05 12:52 | 36.84437 | -2.37539 | 63 ft | 9 kts | 73° |
| 2026-05-05 12:52 | 36.84474 | -2.37502 | 64 ft | 6 kts | 0° |
| 2026-05-05 12:52 | 36.84520 | -2.37482 | 65 ft | 9 kts | 56° |
| 2026-05-05 12:53 | 36.84544 | -2.37402 | 66 ft | 9 kts | 72° |
| 2026-05-05 12:53 | 36.84562 | -2.37330 | 67 ft | 7 kts | 72° |
| 2026-05-05 12:53 | 36.84576 | -2.37273 | 67 ft | 6 kts | 73° |
| 2026-05-05 12:53 | 36.84590 | -2.37215 | 68 ft | 7 kts | 73° |
| 2026-05-05 12:54 | 36.84641 | -2.37180 | 69 ft | 5 kts | 346° |
| 2026-05-05 12:54 | 36.84668 | -2.37190 | 70 ft | 3 kts | 343° |
| 2026-05-05 12:54 | 36.84685 | -2.37172 | 70 ft | 0 kts | 109° |
| 2026-05-05 12:55 | 36.84683 | -2.37169 | 70 ft | 0 kts | 139° |
| 2026-05-05 12:55 | 36.84674 | -2.37161 | 70 ft | 0 kts | 143° |